Terminal Aerodrome Forecast
Issued by NWS Northern Indiana

Home | Current Version | Previous Version | Graphics & Text | Print | Product List | Glossary On
Versions: 1 2 3 4 5 6 7 8 9 10 11 12 13 14 15 16 17
000
FTUS43 KIWX 222300
TAFFWA
TAF
KFWA 222320Z 2300/2324 20013KT P6SM VCSH BKN040 WS020/24050KT
     FM230800 20011KT 5SM -SHRA BR OVC030
     FM231400 16010KT P6SM OVC035
     FM232000 12012KT 3SM RA BR OVC008=

USA.gov is the U.S. government's official web portal to all federal, state and local government web resources and services.